Time;durP1;ratioP1;P1;durP2;ratioP2;P2;SDS_P1;SDS_P2;PMS_P1;PMS_P2;Temp;Humidity;BMP_temperature;BMP_pressure;BME280_temperature;BME280_humidity;BME280_pressure;Samples;Min_cycle;Max_cycle;Signal;HPM_P1;HPM_P2
2021/05/13 00:00:39;;;;;;;21.63;15.07;;;10.50;99.90;;;;;;4970421;28;20262;-79
2021/05/13 00:03:24;;;;;;;24.57;15.33;;;10.50;99.90;;;;;;4972476;28;20793;-79
2021/05/13 00:06:09;;;;;;;23.13;16.30;;;10.40;99.90;;;;;;4988601;28;20240;-79
2021/05/13 00:08:56;;;;;;;27.33;16.50;;;10.40;99.90;;;;;;4978236;28;20238;-79
2021/05/13 00:11:44;;;;;;;23.27;15.37;;;10.40;99.90;;;;;;4979693;28;20214;-79
2021/05/13 00:14:29;;;;;;;22.37;13.90;;;10.40;99.90;;;;;;4972311;28;20216;-78
2021/05/13 00:17:13;;;;;;;24.93;16.27;;;10.30;99.90;;;;;;4966042;28;20288;-79
2021/05/13 00:19:59;;;;;;;21.70;15.87;;;10.30;99.90;;;;;;4969301;28;20228;-78
2021/05/13 00:22:44;;;;;;;23.93;16.40;;;10.30;99.90;;;;;;4966803;28;20222;-78
2021/05/13 00:25:29;;;;;;;20.73;13.90;;;10.30;99.90;;;;;;4973324;28;20209;-77
2021/05/13 00:28:15;;;;;;;19.77;12.93;;;10.20;99.90;;;;;;4968706;28;20289;-77
2021/05/13 00:31:00;;;;;;;19.30;12.90;;;10.20;99.90;;;;;;4977271;28;20643;-78
2021/05/13 00:33:44;;;;;;;21.90;12.83;;;10.20;99.90;;;;;;4973784;28;20221;-77
2021/05/13 00:36:29;;;;;;;18.40;12.90;;;10.10;99.90;;;;;;4980330;28;20221;-77
2021/05/13 00:39:15;;;;;;;20.43;13.07;;;10.10;99.90;;;;;;4977267;28;20217;-77
2021/05/13 00:41:59;;;;;;;18.47;11.97;;;10.10;99.90;;;;;;4965992;28;20264;-77
2021/05/13 00:44:46;;;;;;;17.43;12.00;;;10.00;99.90;;;;;;4976228;28;20217;-78
2021/05/13 00:47:30;;;;;;;19.63;12.97;;;10.00;99.90;;;;;;4978108;28;20333;-78
2021/05/13 00:50:16;;;;;;;22.47;13.63;;;10.00;99.90;;;;;;4973617;28;20225;-78
2021/05/13 00:53:09;;;;;;;21.87;13.70;;;10.00;99.90;;;;;;4975871;28;20201;-78
2021/05/13 00:55:54;;;;;;;20.60;12.53;;;9.90;99.90;;;;;;4996808;28;20217;-77
2021/05/13 00:58:42;;;;;;;25.43;14.40;;;9.90;99.90;;;;;;4973678;28;20305;-79
2021/05/13 01:01:38;;;;;;;22.27;11.83;;;9.90;99.90;;;;;;4964970;28;20273;-79
2021/05/13 01:04:23;;;;;;;20.47;12.77;;;9.90;99.90;;;;;;4977362;28;20262;-80
2021/05/13 01:07:08;;;;;;;20.80;13.77;;;9.80;99.90;;;;;;4983117;28;20640;-79
2021/05/13 01:09:53;;;;;;;18.87;13.07;;;9.80;99.90;;;;;;4965469;28;20667;-80
2021/05/13 01:12:39;;;;;;;21.33;14.13;;;9.80;99.90;;;;;;4968525;28;20238;-79
2021/05/13 01:15:26;;;;;;;20.87;15.30;;;9.80;99.90;;;;;;4973949;28;20714;-79
2021/05/13 01:18:16;;;;;;;19.33;14.20;;;9.80;99.90;;;;;;4981136;28;20232;-79
2021/05/13 01:21:01;;;;;;;22.23;15.23;;;9.80;99.90;;;;;;4979233;28;20233;-76
2021/05/13 01:23:47;;;;;;;22.43;13.90;;;9.70;99.90;;;;;;4971202;28;20225;-79
2021/05/13 01:26:32;;;;;;;25.57;15.10;;;9.70;99.90;;;;;;4970644;28;20208;-79
2021/05/13 01:29:19;;;;;;;23.80;14.67;;;9.70;99.90;;;;;;4975554;28;20209;-79
2021/05/13 01:32:04;;;;;;;22.03;13.53;;;9.70;99.90;;;;;;4965954;28;20217;-79
2021/05/13 01:34:49;;;;;;;20.03;13.30;;;9.70;99.90;;;;;;4973705;28;20225;-78
2021/05/13 01:37:33;;;;;;;23.53;12.57;;;9.70;99.90;;;;;;4961901;28;20290;-79
2021/05/13 01:40:19;;;;;;;22.07;13.53;;;9.70;99.90;;;;;;4973370;28;20230;-78
2021/05/13 01:43:05;;;;;;;23.73;14.30;;;9.70;99.90;;;;;;4978385;28;20221;-78
2021/05/13 01:45:50;;;;;;;19.80;14.33;;;9.70;99.90;;;;;;4965580;28;20706;-79
2021/05/13 01:48:35;;;;;;;21.63;12.63;;;9.70;99.90;;;;;;4975860;28;20253;-79
2021/05/13 01:51:20;;;;;;;26.63;14.67;;;9.70;99.90;;;;;;4978963;28;20228;-78
2021/05/13 01:54:05;;;;;;;19.67;12.60;;;9.70;99.90;;;;;;4978824;28;20217;-79
2021/05/13 01:56:51;;;;;;;23.23;13.47;;;9.70;99.90;;;;;;4976366;28;20260;-79
2021/05/13 01:59:36;;;;;;;20.20;12.77;;;9.70;99.90;;;;;;4979836;28;20285;-79
2021/05/13 02:02:21;;;;;;;25.27;14.50;;;9.70;99.90;;;;;;4970930;28;20238;-79
2021/05/13 02:05:08;;;;;;;19.37;12.37;;;9.60;99.90;;;;;;4971150;28;20233;-78
2021/05/13 02:07:53;;;;;;;14.43;11.13;;;9.60;99.90;;;;;;4987542;28;20209;-79
2021/05/13 02:10:38;;;;;;;17.93;11.23;;;9.60;99.90;;;;;;4974910;28;20285;-78
2021/05/13 02:13:23;;;;;;;20.47;11.67;;;9.60;99.90;;;;;;4981616;28;20209;-77
2021/05/13 02:16:08;;;;;;;16.70;10.87;;;9.50;99.90;;;;;;4980587;28;20252;-77
2021/05/13 02:18:53;;;;;;;18.00;11.03;;;9.50;99.90;;;;;;4970464;28;20229;-77
2021/05/13 02:21:37;;;;;;;20.63;12.50;;;9.50;99.90;;;;;;4982399;28;20228;-78
2021/05/13 02:24:22;;;;;;;19.47;12.97;;;9.50;99.90;;;;;;4981181;28;20304;-79
2021/05/13 02:27:07;;;;;;;23.90;13.97;;;9.50;99.90;;;;;;4976852;28;20237;-79
2021/05/13 02:29:53;;;;;;;20.87;13.63;;;9.40;99.90;;;;;;4980398;28;20309;-78
2021/05/13 02:32:38;;;;;;;23.40;14.87;;;9.40;99.90;;;;;;4974624;28;20213;-78
2021/05/13 02:35:23;;;;;;;25.27;14.80;;;9.40;99.90;;;;;;4962859;28;20214;-79
2021/05/13 02:38:08;;;;;;;28.10;17.33;;;9.30;99.90;;;;;;4962753;28;20230;-77
2021/05/13 02:40:52;;;;;;;24.93;16.70;;;9.30;99.90;;;;;;4968248;28;20234;-77
2021/05/13 02:43:37;;;;;;;31.03;19.27;;;9.30;99.90;;;;;;4972985;28;20245;-78
2021/05/13 02:46:22;;;;;;;33.00;18.97;;;9.30;99.90;;;;;;4976719;28;20253;-78
2021/05/13 02:49:07;;;;;;;28.60;18.00;;;9.30;99.90;;;;;;4976210;28;20704;-79
2021/05/13 02:51:52;;;;;;;29.87;19.63;;;9.20;99.90;;;;;;4975298;28;20344;-79
2021/05/13 02:54:37;;;;;;;39.83;21.90;;;9.20;99.90;;;;;;4972053;28;20213;-79
2021/05/13 02:57:21;;;;;;;36.53;23.07;;;9.20;99.90;;;;;;4982797;28;20244;-80
2021/05/13 03:00:18;;;;;;;39.90;25.17;;;9.20;99.90;;;;;;4969466;28;20335;-79
2021/05/13 03:03:04;;;;;;;34.67;23.40;;;9.20;99.90;;;;;;4966318;28;20221;-79
2021/05/13 03:05:52;;;;;;;34.43;25.10;;;9.20;99.90;;;;;;4962059;28;20230;-79
2021/05/13 03:08:37;;;;;;;34.27;23.00;;;9.20;99.90;;;;;;4971294;28;20257;-79
2021/05/13 03:11:22;;;;;;;35.23;24.03;;;9.10;99.90;;;;;;4977740;28;20221;-79
2021/05/13 03:14:09;;;;;;;28.37;21.03;;;9.10;99.90;;;;;;4986657;28;20626;-80
2021/05/13 03:16:55;;;;;;;32.97;22.67;;;9.10;99.90;;;;;;4975238;28;21079;-79
2021/05/13 03:19:43;;;;;;;31.97;20.80;;;9.10;99.90;;;;;;4981229;28;20240;-80
2021/05/13 03:22:28;;;;;;;31.80;19.87;;;9.10;99.90;;;;;;4989912;28;20209;-78
2021/05/13 03:25:14;;;;;;;30.97;20.13;;;9.00;99.90;;;;;;4981958;28;20217;-78
2021/05/13 03:28:07;;;;;;;28.10;18.57;;;9.00;99.90;;;;;;4976900;28;20204;-78
2021/05/13 03:30:52;;;;;;;29.03;18.97;;;9.00;99.90;;;;;;4963356;28;20229;-79
2021/05/13 03:33:37;;;;;;;29.27;17.77;;;8.90;99.90;;;;;;4972103;28;20209;-78
2021/05/13 03:36:22;;;;;;;29.87;18.17;;;8.90;99.90;;;;;;4963946;28;20296;-79
2021/05/13 03:39:09;;;;;;;21.40;16.30;;;8.90;99.90;;;;;;4969187;28;20249;-79
2021/05/13 03:41:55;;;;;;;23.30;15.37;;;8.80;99.90;;;;;;4965106;28;20697;-79
2021/05/13 03:44:40;;;;;;;23.70;15.83;;;8.80;99.90;;;;;;4970774;28;20210;-79
2021/05/13 03:47:24;;;;;;;26.13;18.07;;;8.80;99.90;;;;;;4970048;28;20265;-79
2021/05/13 03:50:10;;;;;;;29.13;18.57;;;8.70;99.90;;;;;;4963636;28;20237;-79
2021/05/13 03:52:57;;;;;;;28.30;19.83;;;8.70;99.90;;;;;;4971472;28;20225;-79
2021/05/13 03:55:42;;;;;;;47.73;22.47;;;8.70;99.90;;;;;;4971402;28;20264;-79
2021/05/13 03:58:29;;;;;;;106.47;28.67;;;8.70;99.90;;;;;;4978606;28;20733;-78
2021/05/13 04:01:17;;;;;;;87.00;29.03;;;8.70;99.90;;;;;;4988077;28;20229;-77
2021/05/13 04:04:02;;;;;;;159.03;33.20;;;8.70;99.90;;;;;;4984416;28;20252;-79
2021/05/13 04:06:50;;;;;;;129.27;32.50;;;8.70;99.90;;;;;;4992411;28;20579;-77
2021/05/13 04:09:36;;;;;;;263.10;38.23;;;8.70;99.90;;;;;;4978849;28;20280;-78
2021/05/13 04:12:21;;;;;;;107.27;26.30;;;8.70;99.90;;;;;;4987378;28;20209;-79
2021/05/13 04:15:07;;;;;;;104.20;27.40;;;8.70;99.90;;;;;;4977457;28;20198;-78
2021/05/13 04:17:53;;;;;;;88.43;27.37;;;8.80;99.90;;;;;;4974351;28;20207;-79
2021/05/13 04:20:40;;;;;;;122.57;29.57;;;8.80;99.90;;;;;;4977852;28;20229;-79
2021/05/13 04:23:25;;;;;;;188.27;33.27;;;8.80;99.90;;;;;;4978365;28;20241;-79
2021/05/13 04:26:11;;;;;;;177.53;32.97;;;8.80;99.90;;;;;;4985772;28;20224;-78
2021/05/13 04:28:55;;;;;;;180.43;35.60;;;8.90;99.90;;;;;;4985349;28;20251;-79
2021/05/13 04:31:40;;;;;;;197.83;35.70;;;8.90;99.90;;;;;;4975520;28;20623;-78
2021/05/13 04:34:25;;;;;;;180.47;35.90;;;8.90;99.90;;;;;;4963210;28;20217;-79
2021/05/13 04:37:10;;;;;;;166.03;33.33;;;9.00;99.90;;;;;;4972417;28;20242;-80
2021/05/13 04:39:54;;;;;;;145.90;35.27;;;9.00;99.90;;;;;;4976421;28;20233;-79
2021/05/13 04:42:40;;;;;;;198.83;37.77;;;9.10;99.90;;;;;;4972188;28;20212;-79
2021/05/13 04:45:25;;;;;;;131.10;30.63;;;9.10;99.90;;;;;;4971774;28;20205;-79
2021/05/13 04:48:13;;;;;;;128.87;30.97;;;9.20;99.90;;;;;;4969930;28;20221;-79
2021/05/13 04:50:58;;;;;;;157.47;27.73;;;9.20;99.90;;;;;;4971858;28;20364;-79
2021/05/13 04:53:44;;;;;;;166.10;29.27;;;9.30;99.90;;;;;;4982322;28;20241;-77
2021/05/13 04:56:31;;;;;;;134.37;27.33;;;9.30;99.90;;;;;;4985389;28;20617;-80
2021/05/13 04:59:17;;;;;;;135.63;25.83;;;9.40;99.90;;;;;;4979370;28;20274;-77
2021/05/13 05:02:02;;;;;;;103.37;21.93;;;9.50;99.90;;;;;;4973177;28;20205;-79
2021/05/13 05:04:46;;;;;;;126.43;23.60;;;9.50;99.90;;;;;;4974672;28;20224;-79
2021/05/13 05:07:31;;;;;;;121.27;22.20;;;9.50;99.90;;;;;;4976889;28;20212;-79
2021/05/13 05:10:16;;;;;;;111.30;20.17;;;9.60;99.90;;;;;;4982447;28;20229;-80
2021/05/13 05:13:01;;;;;;;89.00;20.27;;;9.60;99.90;;;;;;4974395;28;20209;-79
2021/05/13 05:15:47;;;;;;;78.33;19.80;;;9.70;99.90;;;;;;4978068;28;20246;-80
2021/05/13 05:18:32;;;;;;;77.13;20.20;;;9.70;99.90;;;;;;4975514;28;20568;-80
2021/05/13 05:21:16;;;;;;;79.57;19.10;;;9.80;99.90;;;;;;4975845;28;20237;-80
2021/05/13 05:24:01;;;;;;;82.90;21.33;;;9.80;99.90;;;;;;4970167;28;20262;-78
2021/05/13 05:26:46;;;;;;;82.17;21.90;;;9.80;99.90;;;;;;4970551;28;20882;-78
2021/05/13 05:29:30;;;;;;;124.07;24.67;;;9.90;99.90;;;;;;4965320;28;20642;-79
2021/05/13 05:32:16;;;;;;;65.43;22.77;;;9.90;99.90;;;;;;4964719;28;20665;-78
2021/05/13 05:35:04;;;;;;;85.70;25.10;;;10.00;99.90;;;;;;4972129;28;20217;-79
2021/05/13 05:37:48;;;;;;;62.67;23.33;;;10.00;99.90;;;;;;4970835;28;20249;-77
2021/05/13 05:40:33;;;;;;;72.93;23.87;;;10.10;99.90;;;;;;4964649;28;20237;-78
2021/05/13 05:43:18;;;;;;;50.97;21.97;;;10.20;99.90;;;;;;4957297;28;20243;-78
2021/05/13 05:46:03;;;;;;;33.67;20.83;;;10.20;99.90;;;;;;4971210;28;20206;-77
2021/05/13 05:48:49;;;;;;;27.80;21.37;;;10.30;99.90;;;;;;4966316;28;20257;-77
2021/05/13 05:51:34;;;;;;;29.47;22.37;;;10.30;99.90;;;;;;4958432;28;20690;-77
2021/05/13 05:54:19;;;;;;;29.67;23.60;;;10.30;99.90;;;;;;4953386;28;20617;-76
2021/05/13 05:57:04;;;;;;;35.07;26.17;;;10.40;99.90;;;;;;4966694;28;20265;-79
2021/05/13 05:59:49;;;;;;;33.73;24.27;;;10.40;99.90;;;;;;4969054;28;20233;-77
2021/05/13 06:02:34;;;;;;;37.00;28.80;;;10.40;99.90;;;;;;4965233;28;20214;-79
2021/05/13 06:05:21;;;;;;;33.90;26.77;;;10.40;99.90;;;;;;4967766;28;20205;-77
2021/05/13 06:08:05;;;;;;;39.10;30.63;;;10.50;99.90;;;;;;4970357;28;20272;-80
2021/05/13 06:10:50;;;;;;;41.23;31.17;;;10.50;99.90;;;;;;4971464;28;20288;-78
2021/05/13 06:13:35;;;;;;;44.30;31.30;;;10.50;99.90;;;;;;4971740;28;20634;-78
2021/05/13 06:16:20;;;;;;;38.47;29.40;;;10.60;99.90;;;;;;4968759;28;20218;-77
2021/05/13 06:19:04;;;;;;;40.77;28.93;;;10.60;99.90;;;;;;4968236;28;20241;-77
2021/05/13 06:21:50;;;;;;;37.53;29.47;;;10.70;99.90;;;;;;4982923;28;20273;-79
2021/05/13 06:24:35;;;;;;;40.43;30.57;;;10.70;99.90;;;;;;5003558;28;20212;-78
2021/05/13 06:27:21;;;;;;;37.43;30.67;;;10.70;99.90;;;;;;4991540;28;20209;-78
2021/05/13 06:30:08;;;;;;;44.73;34.23;;;10.70;99.90;;;;;;4988691;28;20233;-78
2021/05/13 06:32:53;;;;;;;46.73;35.53;;;10.80;99.90;;;;;;4973648;28;20630;-79
2021/05/13 06:35:38;;;;;;;42.60;34.53;;;10.80;99.90;;;;;;4969981;28;20237;-79
2021/05/13 06:38:27;;;;;;;51.67;39.07;;;10.80;99.90;;;;;;4965546;28;20700;-79
2021/05/13 06:41:12;;;;;;;53.63;38.70;;;10.80;99.90;;;;;;4970582;28;20792;-79
2021/05/13 06:43:58;;;;;;;56.77;40.40;;;10.90;99.90;;;;;;4969405;28;20241;-79
2021/05/13 06:46:42;;;;;;;54.67;38.70;;;10.90;99.90;;;;;;4966412;28;20441;-78
2021/05/13 06:49:27;;;;;;;55.20;36.67;;;11.00;99.90;;;;;;4969877;28;20220;-79
2021/05/13 06:52:12;;;;;;;48.93;36.53;;;11.30;99.90;;;;;;4967948;28;20268;-79
2021/05/13 06:54:58;;;;;;;53.77;38.40;;;11.10;99.90;;;;;;4966553;28;20253;-78
2021/05/13 06:57:42;;;;;;;61.67;43.10;;;11.20;99.90;;;;;;4969640;28;20300;-78
2021/05/13 07:00:27;;;;;;;64.60;44.90;;;11.30;99.90;;;;;;4969692;28;20284;-78
2021/05/13 07:03:13;;;;;;;76.00;51.10;;;11.30;99.90;;;;;;4973428;28;20553;-80
2021/05/13 07:05:57;;;;;;;83.33;51.60;;;11.30;99.90;;;;;;4986984;28;21944;-80
2021/05/13 07:08:43;;;;;;;94.20;55.10;;;11.50;99.90;;;;;;4982011;28;20248;-78
2021/05/13 07:11:28;;;;;;;85.13;54.70;;;11.60;99.90;;;;;;4972084;28;20240;-78
2021/05/13 07:14:13;;;;;;;76.10;53.07;;;11.70;99.90;;;;;;4970053;28;20221;-78
2021/05/13 07:16:57;;;;;;;75.17;51.10;;;11.80;99.90;;;;;;4964888;28;20272;-79
2021/05/13 07:19:42;;;;;;;79.33;52.17;;;12.00;99.90;;;;;;4969212;28;20234;-77
2021/05/13 07:22:27;;;;;;;66.07;49.60;;;12.00;99.90;;;;;;4968848;28;21265;-78
2021/05/13 07:25:12;;;;;;;58.90;44.20;;;12.20;99.90;;;;;;4970415;28;20213;-79
2021/05/13 07:27:58;;;;;;;55.70;40.60;;;12.30;99.90;;;;;;4970128;28;20297;-79
2021/05/13 07:30:43;;;;;;;52.00;40.30;;;12.40;99.90;;;;;;4966352;28;20232;-79
2021/05/13 07:33:28;;;;;;;44.87;35.63;;;12.50;99.90;;;;;;4969277;28;20218;-77
2021/05/13 07:36:12;;;;;;;45.03;35.37;;;12.50;99.90;;;;;;4982037;28;20209;-77
2021/05/13 07:38:57;;;;;;;42.77;35.40;;;12.70;99.90;;;;;;4962461;28;20261;-77
2021/05/13 07:41:42;;;;;;;41.33;32.63;;;12.80;99.90;;;;;;4961914;28;20263;-77
2021/05/13 07:44:27;;;;;;;32.10;27.70;;;12.90;99.90;;;;;;4964067;28;20251;-77
2021/05/13 07:47:12;;;;;;;32.43;26.53;;;13.10;99.90;;;;;;4967211;28;20728;-77
2021/05/13 07:49:57;;;;;;;31.73;25.93;;;13.20;99.90;;;;;;4963167;28;20258;-77
2021/05/13 07:52:42;;;;;;;30.77;23.87;;;13.30;99.90;;;;;;4965936;28;20210;-77
2021/05/13 07:55:27;;;;;;;33.43;27.67;;;13.40;99.90;;;;;;4968430;28;20222;-77
2021/05/13 07:58:12;;;;;;;31.90;27.77;;;13.50;99.90;;;;;;4971103;28;20227;-77
2021/05/13 08:00:57;;;;;;;29.57;25.97;;;13.60;99.90;;;;;;4965432;28;20277;-77
2021/05/13 08:03:42;;;;;;;27.63;24.33;;;13.70;99.90;;;;;;4959256;28;20265;-78
2021/05/13 08:06:27;;;;;;;29.47;24.33;;;13.80;99.90;;;;;;4968863;28;20586;-78
2021/05/13 08:09:12;;;;;;;30.33;25.10;;;14.00;99.90;;;;;;4958673;28;20239;-78
2021/05/13 08:11:57;;;;;;;31.40;27.60;;;13.90;99.90;;;;;;4962444;28;20211;-77
2021/05/13 08:14:44;;;;;;;30.43;23.63;;;14.10;99.90;;;;;;4971993;28;20254;-78
2021/05/13 08:17:30;;;;;;;31.80;26.03;;;14.20;99.90;;;;;;4969875;28;20215;-77
2021/05/13 08:20:16;;;;;;;27.00;23.27;;;14.30;99.90;;;;;;4984181;28;20327;-78
2021/05/13 08:23:00;;;;;;;31.13;23.67;;;14.40;99.90;;;;;;4981613;28;20248;-78
2021/05/13 08:25:45;;;;;;;26.93;21.83;;;14.50;99.90;;;;;;4986012;28;20209;-79
2021/05/13 08:28:30;;;;;;;23.20;19.97;;;14.60;99.90;;;;;;4992161;28;20282;-78
2021/05/13 08:31:15;;;;;;;25.47;22.30;;;14.70;99.90;;;;;;4975879;28;20240;-79
2021/05/13 08:34:00;;;;;;;25.13;21.73;;;14.80;99.90;;;;;;4957810;28;20216;-78
2021/05/13 08:36:45;;;;;;;24.07;21.30;;;14.90;99.90;;;;;;4970198;28;20210;-78
2021/05/13 08:39:29;;;;;;;24.57;21.80;;;15.00;99.90;;;;;;4973117;28;20240;-78
2021/05/13 08:42:15;;;;;;;25.87;21.90;;;15.10;99.90;;;;;;4958555;28;20272;-79
2021/05/13 08:45:00;;;;;;;22.47;20.03;;;15.20;99.90;;;;;;4972225;28;20252;-79
2021/05/13 08:47:46;;;;;;;21.17;18.50;;;15.40;99.90;;;;;;4973369;28;20302;-80
2021/05/13 08:50:31;;;;;;;24.87;20.77;;;15.60;99.90;;;;;;4985567;28;20744;-80
2021/05/13 08:53:16;;;;;;;23.83;19.13;;;15.70;99.90;;;;;;4988403;28;20221;-80
2021/05/13 08:56:01;;;;;;;23.03;20.03;;;16.00;99.90;;;;;;4980961;28;20598;-80
2021/05/13 08:58:46;;;;;;;20.77;17.17;;;16.10;99.90;;;;;;4974971;28;20612;-81
2021/05/13 09:01:32;;;;;;;23.03;19.80;;;16.30;99.90;;;;;;4979964;28;20248;-79
2021/05/13 09:04:17;;;;;;;20.90;18.50;;;16.60;99.90;;;;;;4969405;28;20271;-77
2021/05/13 09:07:13;;;;;;;19.70;17.33;;;17.10;99.90;;;;;;4970227;28;20213;-80
2021/05/13 09:10:00;;;;;;;18.37;16.37;;;17.10;99.90;;;;;;4973106;28;20729;-80
2021/05/13 09:12:47;;;;;;;17.30;14.73;;;17.40;99.90;;;;;;4975004;28;20215;-79
2021/05/13 09:15:33;;;;;;;19.60;14.73;;;17.60;99.90;;;;;;4966755;28;20227;-79
2021/05/13 09:18:30;;;;;;;11.30;8.67;;;17.80;99.90;;;;;;4968198;28;20233;-78
2021/05/13 09:21:15;;;;;;;17.77;12.83;;;18.00;99.90;;;;;;4990391;28;20257;-79
2021/05/13 09:24:01;;;;;;;16.23;14.37;;;18.20;99.90;;;;;;4983073;28;20205;-79
2021/05/13 09:26:45;;;;;;;16.60;13.47;;;18.40;99.90;;;;;;4982407;28;20220;-80
2021/05/13 09:29:30;;;;;;;17.87;15.80;;;18.50;99.90;;;;;;4981257;28;20234;-79
2021/05/13 09:32:17;;;;;;;14.63;11.60;;;18.60;99.90;;;;;;4973483;28;20226;-78
2021/05/13 09:35:09;;;;;;;16.53;14.13;;;18.70;99.90;;;;;;4977694;28;20264;-80
2021/05/13 09:37:54;;;;;;;18.90;16.30;;;18.70;99.90;;;;;;4968739;28;20726;-78
2021/05/13 09:40:41;;;;;;;18.43;13.63;;;18.70;99.90;;;;;;4965362;28;20280;-79
2021/05/13 09:43:31;;;;;;;14.23;12.17;;;18.70;99.90;;;;;;4978526;28;20218;-80
2021/05/13 09:46:31;;;;;;;14.70;12.20;;;18.70;99.90;;;;;;4975217;28;20694;-79
2021/05/13 09:49:16;;;;;;;13.70;10.73;;;18.70;99.90;;;;;;4966488;28;20436;-78
2021/05/13 09:52:01;;;;;;;13.17;9.50;;;18.70;99.90;;;;;;4971971;28;20220;-77
2021/05/13 09:55:24;;;;;;;13.13;9.73;;;18.70;99.90;;;;;;4962440;28;20631;-79
2021/05/13 09:58:11;;;;;;;14.53;11.40;;;18.70;99.90;;;;;;4961119;28;20244;-80
2021/05/13 10:00:56;;;;;;;15.10;12.33;;;18.70;99.90;;;;;;4978873;28;20250;-78
2021/05/13 10:03:41;;;;;;;14.73;11.70;;;18.70;99.90;;;;;;4974189;28;20213;-79
2021/05/13 10:06:27;;;;;;;15.10;11.13;;;18.80;99.90;;;;;;4984673;28;20209;-79
2021/05/13 10:09:14;;;;;;;13.43;11.37;;;18.80;99.90;;;;;;5000810;28;20231;-77
2021/05/13 10:12:00;;;;;;;14.27;12.77;;;19.10;99.90;;;;;;4993928;28;20450;-80
2021/05/13 10:14:50;;;;;;;15.03;11.23;;;19.10;99.90;;;;;;4983207;28;20221;-78
2021/05/13 10:17:36;;;;;;;14.47;10.73;;;19.50;99.90;;;;;;4988543;28;20210;-79
2021/05/13 10:20:23;;;;;;;15.00;10.07;;;20.00;99.90;;;;;;4975543;28;20229;-79
2021/05/13 10:23:13;;;;;;;14.73;11.63;;;20.80;99.90;;;;;;4975308;28;20207;-79
2021/05/13 10:25:58;;;;;;;14.80;12.47;;;21.80;99.90;;;;;;4984630;28;20264;-79
2021/05/13 10:28:43;;;;;;;17.73;13.57;;;22.80;99.90;;;;;;4981497;28;20229;-77
2021/05/13 10:31:35;;;;;;;15.47;13.80;;;23.90;99.90;;;;;;4969797;28;20279;-77
2021/05/13 10:34:48;;;;;;;16.07;14.47;;;25.00;99.90;;;;;;4962336;28;20571;-77
2021/05/13 10:37:34;;;;;;;15.53;12.97;;;26.10;98.20;;;;;;4964861;28;20290;-76
2021/05/13 10:43:25;;;;;;;11.32;9.23;;;28.00;91.20;;;;;;4975107;28;20215;-79
2021/05/13 10:46:26;;;;;;;13.85;12.00;;;28.90;83.40;;;;;;4974701;28;20209;-78
2021/05/13 10:49:16;;;;;;;12.75;10.10;;;29.60;79.80;;;;;;4966984;28;20231;-79
2021/05/13 10:52:30;;;;;;;9.60;6.93;;;30.40;71.50;;;;;;4970920;28;20280;-79
2021/05/13 10:55:35;;;;;;;9.95;7.18;;;31.20;69.70;;;;;;4968538;28;20219;-79
2021/05/13 10:58:50;;;;;;;7.20;4.80;;;31.90;63.30;;;;;;4969277;28;20221;-79
2021/05/13 11:01:38;;;;;;;6.88;5.00;;;32.50;58.50;;;;;;4973336;28;20307;-79
2021/05/13 11:04:42;;;;;;;9.70;5.30;;;33.20;59.00;;;;;;4962149;28;20251;-79
2021/05/13 11:07:29;;;;;;;9.32;4.40;;;33.80;56.80;;;;;;4971916;28;20260;-79
2021/05/13 11:10:14;;;;;;;5.97;2.22;;;34.40;48.80;;;;;;4992310;28;20217;-80
2021/05/13 11:13:10;;;;;;;3.97;2.63;;;34.90;47.50;;;;;;4991989;28;20225;-78
2021/05/13 11:15:55;;;;;;;5.43;2.33;;;35.40;47.80;;;;;;4976728;28;20492;-79
2021/05/13 11:18:40;;;;;;;6.72;4.25;;;35.90;45.00;;;;;;4978315;28;20315;-80
2021/05/13 11:22:04;;;;;;;4.70;4.30;;;36.40;46.40;;;;;;4976749;28;20236;-80
2021/05/13 11:24:54;;;;;;;7.28;5.40;;;36.90;49.50;;;;;;4988481;28;20197;-81
2021/05/13 11:27:39;;;;;;;8.65;5.75;;;37.40;47.40;;;;;;4982914;28;20309;-82
2021/05/13 11:30:25;;;;;;;8.02;5.13;;;37.80;45.40;;;;;;4983594;28;21008;-82
2021/05/13 11:33:10;;;;;;;6.63;4.90;;;38.20;42.30;;;;;;4978008;28;20248;-81
2021/05/13 11:36:05;;;;;;;6.68;4.88;;;38.60;42.20;;;;;;4983204;28;20220;-83
2021/05/13 11:38:53;;;;;;;6.35;4.35;;;38.90;42.40;;;;;;4983177;28;20225;-81
2021/05/13 11:41:40;;;;;;;7.78;4.03;;;39.20;43.60;;;;;;4963457;28;20238;-82
2021/05/13 11:44:25;;;;;;;6.72;4.63;;;39.50;44.20;;;;;;4983244;28;20217;-82
2021/05/13 11:47:10;;;;;;;7.13;4.82;;;39.80;40.70;;;;;;4982942;28;20236;-82
2021/05/13 11:49:55;;;;;;;5.40;4.90;;;40.10;39.10;;;;;;4975760;28;20233;-83
2021/05/13 11:53:05;;;;;;;6.68;4.50;;;40.30;38.90;;;;;;4976173;28;20214;-81
2021/05/13 11:55:51;;;;;;;8.32;5.05;;;40.60;40.00;;;;;;4977314;28;20242;-81
2021/05/13 11:58:43;;;;;;;5.45;4.20;;;40.90;37.80;;;;;;4976385;28;20201;-82
2021/05/13 12:01:31;;;;;;;9.52;4.95;;;41.20;38.70;;;;;;4982836;28;20268;-83
2021/05/13 12:04:17;;;;;;;3.67;3.38;;;41.40;38.10;;;;;;4975664;28;20247;-83
2021/05/13 12:07:02;;;;;;;4.28;3.60;;;41.70;38.10;;;;;;4984790;28;20208;-80
2021/05/13 12:09:49;;;;;;;6.45;3.95;;;41.90;38.00;;;;;;4992145;28;20240;-81
2021/05/13 12:12:35;;;;;;;6.28;4.00;;;42.20;38.20;;;;;;4994403;28;20208;-83
2021/05/13 12:15:21;;;;;;;5.20;4.15;;;42.60;37.90;;;;;;4976891;28;20205;-82
2021/05/13 12:18:07;;;;;;;5.80;4.25;;;42.90;35.90;;;;;;4977972;28;20290;-81
2021/05/13 12:20:52;;;;;;;6.90;4.32;;;43.10;34.20;;;;;;4995466;28;20233;-83
2021/05/13 12:23:40;;;;;;;6.18;4.00;;;43.50;33.70;;;;;;5000107;28;20256;-82
2021/05/13 12:26:29;;;;;;;6.78;4.28;;;43.60;33.70;;;;;;4992806;28;20209;-82
2021/05/13 12:29:15;;;;;;;5.55;3.78;;;43.70;32.70;;;;;;4993713;28;20340;-82
2021/05/13 12:32:00;;;;;;;5.53;3.70;;;43.70;33.60;;;;;;4962225;28;20718;-82
2021/05/13 12:34:49;;;;;;;5.85;3.72;;;43.50;33.50;;;;;;4974329;28;20293;-82
2021/05/13 12:37:34;;;;;;;4.78;3.80;;;43.00;32.60;;;;;;4973008;28;20206;-83
2021/05/13 12:40:25;;;;;;;5.10;3.78;;;42.50;33.50;;;;;;4978233;28;20362;-82
2021/05/13 12:43:12;;;;;;;6.20;3.70;;;42.10;33.30;;;;;;4983117;28;20209;-83
2021/05/13 12:45:58;;;;;;;4.63;2.92;;;41.70;33.80;;;;;;4984015;28;20237;-82
2021/05/13 12:48:43;;;;;;;4.30;3.20;;;41.40;35.20;;;;;;4979167;28;20237;-81
2021/05/13 12:51:28;;;;;;;4.47;3.47;;;41.30;33.90;;;;;;4984256;28;20257;-83
2021/05/13 12:54:18;;;;;;;5.53;3.88;;;41.20;36.00;;;;;;4984151;28;20201;-83
2021/05/13 12:57:15;;;;;;;4.35;3.38;;;41.00;34.10;;;;;;4985070;28;20216;-82
2021/05/13 13:00:00;;;;;;;3.47;3.10;;;41.00;36.10;;;;;;4972746;28;20214;-80
2021/05/13 13:02:46;;;;;;;4.55;3.25;;;40.80;35.90;;;;;;4973071;28;20293;-84
2021/05/13 13:05:30;;;;;;;6.68;3.88;;;40.80;37.40;;;;;;4981766;28;20217;-83
2021/05/13 13:08:37;;;;;;;5.28;3.58;;;40.80;34.30;;;;;;4987006;28;20293;-81
2021/05/13 13:11:34;;;;;;;4.55;3.58;;;40.90;35.30;;;;;;4972958;28;20333;-83
2021/05/13 13:14:33;;;;;;;7.28;3.72;;;41.00;34.80;;;;;;4994365;28;20214;-81
2021/05/13 13:17:23;;;;;;;4.85;3.35;;;40.90;34.30;;;;;;4978700;28;20214;-83
2021/05/13 13:20:10;;;;;;;6.18;4.15;;;41.00;36.90;;;;;;4986560;28;20236;-82
2021/05/13 13:23:15;;;;;;;7.07;4.35;;;41.00;34.40;;;;;;4999604;28;20212;-81
2021/05/13 13:26:05;;;;;;;5.50;3.65;;;41.10;34.70;;;;;;4996280;28;20212;-82
2021/05/13 13:28:50;;;;;;;4.60;3.17;;;41.10;34.30;;;;;;4999951;28;20283;-82
2021/05/13 13:31:37;;;;;;;7.05;4.10;;;41.20;34.70;;;;;;4981099;28;20636;-82
2021/05/13 13:34:24;;;;;;;7.15;3.78;;;41.20;33.60;;;;;;4985124;28;20236;-82
2021/05/13 13:37:10;;;;;;;4.65;2.80;;;41.20;34.50;;;;;;4985224;28;20666;-82
2021/05/13 13:39:55;;;;;;;5.55;2.85;;;41.10;35.40;;;;;;4984671;28;20280;-81
2021/05/13 13:42:40;;;;;;;3.70;2.95;;;41.10;35.80;;;;;;4985239;28;20214;-82
2021/05/13 13:45:25;;;;;;;3.65;2.50;;;41.10;34.30;;;;;;4970988;28;20230;-80
2021/05/13 13:48:12;;;;;;;3.92;2.83;;;41.20;35.90;;;;;;4985039;28;20234;-83
2021/05/13 13:50:59;;;;;;;4.25;2.95;;;41.40;33.70;;;;;;4985765;28;20233;-82
2021/05/13 13:53:45;;;;;;;5.70;3.15;;;41.50;33.50;;;;;;4983914;28;20241;-83
2021/05/13 13:56:33;;;;;;;3.40;2.90;;;41.40;33.10;;;;;;4985560;28;20209;-82
2021/05/13 13:59:18;;;;;;;6.70;3.40;;;41.20;33.30;;;;;;4984583;28;20222;-83
2021/05/13 14:02:03;;;;;;;3.60;2.85;;;40.80;34.00;;;;;;4984538;28;20225;-82
2021/05/13 14:04:47;;;;;;;5.95;3.35;;;40.40;34.50;;;;;;4966600;28;20242;-84
2021/05/13 14:07:33;;;;;;;5.88;3.60;;;39.80;35.20;;;;;;4983353;28;20206;-83
2021/05/13 14:10:19;;;;;;;4.38;3.10;;;39.20;36.10;;;;;;4976729;28;20254;-82
2021/05/13 14:13:07;;;;;;;3.35;3.05;;;38.80;37.10;;;;;;4986765;28;20221;-82
2021/05/13 14:15:56;;;;;;;5.22;3.63;;;38.50;36.20;;;;;;4993659;28;20908;-82